• Join FlightAware (Why Join?)
  • Login
  • US Flag 
04:02AM EDT


 

Airport Tracker/Info


-or-


 

Live Flight TrackerFlight Track Log ✈ SWA430 ✈ 14-Apr-2013 ✈ KLAS - KPHL

Flight Track Log - Related Links

Times and Time Zones

All times are in EDT time to prevent confusion due to time zone crossing. See the SWA430 flight status page for this flight to view local times or setup timezone preferences in your user account.

Time Position Orientation Groundspeed Altitude Reporting Facility
EDT Latitude Longitude Course Direction KTS MPH feet Rate Location/Type
06:57PM 36.0758 -115.1764 276° West 181 208 3,400  Level Los Angeles Center
06:58PM 36.0836 -115.2722 276° West 244 281 5,900 2,100 Climbing Los Angeles Center
06:59PM 36.1183 -115.2925 335° Northwest 251 289 7,500 2,940 Climbing Los Angeles Center
06:59PM 36.1481 -115.2908 North 265 305 8,600 2,280 Climbing Los Angeles Center
07:00PM 36.1733 -115.2483 54° Northeast 262 302 9,900 1,200 Climbing Los Angeles Center
07:01PM 36.1967 -115.1186 77° East 328 377 10,800 1,560 Climbing Los Angeles Center
07:02PM 36.1983 -114.9900 89° East 368 423 13,200 2,220 Climbing Los Angeles Center
07:03PM 36.2003 -114.8547 89° East 386 444 15,400 2,160 Climbing Los Angeles Center
07:04PM 36.1997 -114.7111 90° East 408 470 17,700 2,280 Climbing Los Angeles Center
07:05PM 36.1975 -114.5636 91° East 423 487 20,200 2,040 Climbing Los Angeles Center
07:06PM 36.1958 -114.4108 91° East 438 504 22,000 1,860 Climbing Los Angeles Center
07:07PM 36.1947 -114.2206 90° East 456 525 24,100 1,740 Climbing Los Angeles Center
07:08PM 36.2156 -114.0600 81° East 471 542 25,600 1,260 Climbing Los Angeles Center
07:09PM 36.2347 -113.8964 82° East 477 549 26,800 1,200 Climbing Los Angeles Center
07:10PM 36.2547 -113.7275 82° East 489 563 28,100 1,140 Climbing Los Angeles Center
07:11PM 36.2742 -113.5561 82° East 498 573 29,200 1,020 Climbing Los Angeles Center
07:12PM 36.2942 -113.3808 82° East 510 587 30,300 1,200 Climbing Los Angeles Center
07:13PM 36.3267 -113.1831 78° East 517 595 31,700 1,200 Climbing Los Angeles Center
07:14PM 36.3869 -113.0261 64° Northeast 508 585 32,900 1,020 Climbing Los Angeles Center
07:15PM 36.4447 -112.8669 66° East 508 585 33,900 960 Climbing Los Angeles Center
07:16PM 36.5025 -112.7100 65° Northeast 504 580 35,000 420 Climbing Los Angeles Center
07:18PM 36.5953 -112.4569 65° Northeast 507 583 35,000  Level Denver Center
07:18PM 36.6303 -112.3631 65° Northeast 503 579 35,000  Level Los Angeles Center
07:19PM 36.6872 -112.2047 66° East 504 580 35,000  Level Los Angeles Center
07:20PM 36.7211 -112.1092 66° East 505 581 35,000  Level Denver Center
07:22PM 36.8008 -111.8878 66° East 501 577 35,000  Level Los Angeles Center
07:22PM 36.8353 -111.7914 66° East 503 579 35,000  Level Denver Center
07:24PM 36.9264 -111.5375 66° East 504 580 35,000  Level Los Angeles Center
07:24PM 36.9497 -111.4731 66° East 504 580 35,000  Level Denver Center
07:25PM 37.0053 -111.3142 66° East 503 579 35,000  Level Denver Center
07:26PM 37.0594 -111.1547 67° East 501 577 35,000  Level Denver Center
07:27PM 37.1261 -110.9622 66° East 502 578 35,000  Level Denver Center
07:28PM 37.1822 -110.8022 66° East 504 580 35,000  Level Denver Center
07:29PM 37.2375 -110.6414 67° East 503 579 35,000  Level Denver Center
07:30PM 37.2931 -110.4789 67° East 507 583 35,000  Level Denver Center
07:31PM 37.3478 -110.3164 67° East 507 583 35,000  Level Denver Center
07:32PM 37.4069 -110.1450 66° East 512 589 35,000  Level Denver Center
07:33PM 37.4686 -109.9597 67° East 513 590 35,000  Level Denver Center
07:34PM 37.5217 -109.8042 67° East 509 586 35,000  Level Denver Center
07:35PM 37.5750 -109.6453 67° East 512 589 35,000  Level Denver Center
07:36PM 37.6361 -109.4597 67° East 513 590 35,000  Level Denver Center
07:37PM 37.6894 -109.2989 67° East 516 594 35,000  Level Denver Center
07:38PM 37.7508 -109.1106 68° East 519 597 35,000  Level Denver Center
07:39PM 37.8031 -108.9481 68° East 520 598 35,000  Level Denver Center
07:40PM 37.8578 -108.7861 67° East 523 602 35,000  Level Denver Center
07:42PM 37.9239 -108.6008 66° East 518 596 35,000  Level Denver Center
07:43PM 37.9800 -108.4417 66° East 517 595 35,000  Level Denver Center
07:44PM 38.0353 -108.2803 66° East 518 596 35,000  Level Denver Center
07:45PM 38.1011 -108.0861 67° East 524 603 35,000  Level Denver Center
07:46PM 38.1544 -107.9267 67° East 518 596 35,000  Level Denver Center
07:47PM 38.2272 -107.7136 66° East 516 594 35,000  Level Denver Center
07:48PM 38.2814 -107.5550 66° East 513 590 35,000  Level Denver Center
07:49PM 38.3456 -107.3639 67° East 523 602 35,000  Level Denver Center
07:50PM 38.4044 -107.1842 67° East 533 613 35,000  Level Denver Center
07:51PM 38.4594 -107.0111 68° East 531 611 35,000  Level Denver Center
07:52PM 38.4942 -106.8256 76° East 541 623 35,000  Level Denver Center
07:53PM 38.5314 -106.6422 75° East 537 618 35,000  Level Denver Center
07:54PM 38.5658 -106.4592 76° East 534 615 35,000  Level Denver Center
07:55PM 38.6019 -106.2742 76° East 535 616 35,000  Level Denver Center
07:56PM 38.6411 -106.0714 76° East 533 613 35,000  Level Denver Center
07:57PM 38.6761 -105.8856 76° East 534 615 35,000  Level Denver Center
07:58PM 38.7114 -105.7003 76° East 530 610 35,000  Level Denver Center
07:59PM 38.7464 -105.5139 76° East 534 615 35,000  Level Denver Center
08:00PM 38.7864 -105.2953 77° East 537 618 35,000  Level Denver Center
08:01PM 38.8208 -105.1083 77° East 538 619 35,000  Level Denver Center
08:02PM 38.8542 -104.9214 77° East 535 616 35,000  Level Denver Center
08:03PM 38.8886 -104.7333 77° East 538 619 35,000  Level Denver Center
08:04PM 38.9222 -104.5478 77° East 533 613 35,000  Level Denver Center
08:05PM 38.9536 -104.3631 78° East 529 609 35,000  Level Denver Center
08:06PM 38.9867 -104.1772 77° East 533 613 35,000  Level Denver Center
08:07PM 39.0236 -103.9575 78° East 536 617 35,000  Level Denver Center
08:08PM 39.0561 -103.7678 78° East 540 621 35,000  Level Denver Center
08:09PM 39.0886 -103.5769 78° East 542 624 35,000  Level Denver Center
08:11PM 39.1214 -103.3856 77° East 544 626 35,000  Level Denver Center
08:12PM 39.1528 -103.1922 78° East 548 631 35,000  Level Denver Center
08:13PM 39.1847 -102.9967 78° East 552 635 35,000  Level Denver Center
08:14PM 39.2150 -102.8031 79° East 549 632 35,000  Level Denver Center
08:15PM 39.2497 -102.5828 78° East 553 636 35,000  Level Denver Center
08:16PM 39.2794 -102.3964 78° East 553 636 35,000  Level Denver Center
08:17PM 39.3133 -102.1764 79° East 558 642 35,000  Level Denver Center
08:18PM 39.3433 -101.9864 78° East 557 641 35,000  Level Denver Center
08:19PM 39.3717 -101.7986 79° East 557 641 35,000  Level Denver Center
08:20PM 39.3789 -101.5764 88° East 559 643 35,000  Level Denver Center
08:21PM 39.3622 -101.3819 96° East 568 654 35,000  Level Denver Center
08:22PM 39.3431 -101.1581 96° East 564 649 35,000  Level Denver Center
08:23PM 39.3261 -100.9644 96° East 567 652 35,000  Level Denver Center
08:24PM 39.3064 -100.7403 96° East 565 650 35,000  Level Denver Center
08:25PM 39.2883 -100.5500 97° East 562 647 35,000  Level Denver Center
08:26PM 39.2683 -100.3267 97° East 562 647 35,000  Level Denver Center
08:27PM 39.2608 -100.1331 93° East 569 655 35,000  Level Denver Center
08:28PM 39.2683 -99.9117 87° East 557 641 35,000  Level Denver Center
08:29PM 39.2725 -99.7183 88° East 562 647 35,000  Level Denver Center
08:30PM 39.2772 -99.4950 88° East 561 646 35,000  Level Denver Center
08:31PM 39.2811 -99.3011 88° East 565 650 35,000  Level Denver Center
08:32PM 39.2844 -99.1094 89° East 561 646 35,000  Level Denver Center
08:33PM 39.2894 -98.8936 88° East 561 646 35,000  Level Denver Center
08:34PM 39.2931 -98.6931 89° East 560 644 35,000  Level Denver Center
08:35PM 39.2958 -98.4928 89° East 561 646 35,000  Level Denver Center
08:36PM 39.2975 -98.2933 89° East 558 642 35,000  Level Denver Center
08:37PM 39.3000 -98.0181 89° East 549 632 35,000  Level Kansas City Center
08:39PM 39.3033 -97.8147 89° East 555 639 35,000  Level Kansas City Center
08:40PM 39.3047 -97.6153 89° East 558 642 35,000  Level Kansas City Center
08:41PM 39.3047 -97.4158 90° East 550 633 35,000  Level Kansas City Center
08:42PM 39.3058 -97.2242 90° East 555 639 35,000  Level Kansas City Center
08:43PM 39.3053 -97.0008 90° East 557 641 35,000  Level Kansas City Center
08:44PM 39.3064 -96.8078 90° East 560 644 35,000  Level Kansas City Center
08:45PM 39.3050 -96.5842 90° East 559 643 35,000  Level Kansas City Center
08:46PM 39.3050 -96.3797 90° East 559 643 35,000  Level Kansas City Center
08:47PM 39.3042 -96.1803 90° East 557 641 35,000  Level Kansas City Center
08:48PM 39.3008 -95.9786 91° East 554 638 35,000  Level Kansas City Center
08:49PM 39.2997 -95.7883 90° East 553 636 35,000  Level Kansas City Center
08:50PM 39.2972 -95.5672 91° East 549 632 35,000  Level Kansas City Center
08:51PM 39.2953 -95.3678 91° East 549 632 35,000  Level Kansas City Center
08:52PM 39.2919 -95.1586 91° East 544 626 35,000  Level Kansas City Center
08:53PM 39.2908 -94.9631 90° East 541 623 35,000  Level Kansas City Center
08:54PM 39.3142 -94.7817 81° East 534 615 35,000  Level Kansas City Center
08:55PM 39.3411 -94.6003 79° East 544 626 35,000  Level Kansas City Center
08:56PM 39.3694 -94.3900 80° East 532 612 35,000  Level Kansas City Center
08:57PM 39.3933 -94.2106 80° East 530 610 35,000  Level Kansas City Center
08:58PM 39.4206 -94.0022 80° East 526 605 35,000  Level Kansas City Center
08:59PM 39.4444 -93.8244 80° East 523 602 35,000  Level Kansas City Center
09:00PM 39.4703 -93.6219 81° East 530 610 35,000  Level Kansas City Center
09:01PM 39.4933 -93.4364 81° East 528 608 35,000  Level Kansas City Center
09:02PM 39.5172 -93.2556 80° East 522 601 35,000  Level Kansas City Center
09:03PM 39.5414 -93.0728 80° East 521 600 35,000  Level Kansas City Center
09:04PM 39.5619 -92.8875 82° East 525 604 35,000  Level Kansas City Center
09:05PM 39.5881 -92.6708 81° East 518 596 35,000  Level Kansas City Center
09:06PM 39.6086 -92.4953 81° East 512 589 35,000  Level Kansas City Center
09:07PM 39.6289 -92.3144 82° East 505 581 35,000  Level Kansas City Center
09:08PM 39.6489 -92.1433 81° East 502 578 35,000  Level Kansas City Center
09:09PM 39.6689 -91.9669 82° East 501 577 35,000  Level Kansas City Center
09:10PM 39.6933 -91.7536 81° East 504 580 35,000  Level Kansas City Center
09:11PM 39.7128 -91.5786 82° East 501 577 35,000  Level Kansas City Center
09:12PM 39.7308 -91.4033 82° East 497 572 35,000  Level Kansas City Center
09:13PM 39.7489 -91.2386 82° East 494 568 35,000  Level Kansas City Center
09:15PM 39.7683 -91.0544 82° East 494 568 35,000  Level Kansas City Center
09:16PM 39.7875 -90.8747 82° East 489 563 35,000  Level Kansas City Center
09:17PM 39.8047 -90.7017 83° East 486 559 35,000  Level Kansas City Center
09:18PM 39.8256 -90.4947 82° East 483 556 35,000  Level Kansas City Center
09:19PM 39.8422 -90.3225 83° East 483 556 35,000  Level Kansas City Center
09:20PM 39.8597 -90.1500 82° East 483 556 35,000  Level Kansas City Center
09:21PM 39.8761 -89.9769 83° East 483 556 35,000  Level Kansas City Center
09:21PM 39.8853 -89.8772 83° East 480 552 35,000  Level Chicago Center
09:22PM 39.8928 -89.8047 82° East 483 556 35,000  Level Kansas City Center
09:23PM 39.9075 -89.6331 84° East 482 555 35,000  Level Kansas City Center
09:23PM 39.9197 -89.4956 83° East 486 559 35,000  Level Chicago Center
09:24PM 39.9367 -89.3197 83° East 491 565 35,000  Level Chicago Center
09:25PM 39.9433 -89.2475 83° East 489 563 35,000  Level Kansas City Center
09:26PM 39.9597 -89.0706 83° East 493 567 35,000  Level Kansas City Center
09:27PM 39.9744 -88.8942 84° East 493 567 35,000  Level Kansas City Center
09:28PM 39.9886 -88.7175 84° East 491 565 35,000  Level Kansas City Center
09:29PM 40.0047 -88.5428 83° East 490 564 35,000  Level Kansas City Center
09:30PM 40.0208 -88.3692 83° East 486 559 35,000  Level Kansas City Center
09:31PM 40.0294 -88.2347 85° East 480 552 35,000  Level Chicago Center
09:32PM 40.0425 -88.0639 84° East 476 548 35,000  Level Chicago Center
09:33PM 40.0564 -87.8947 84° East 472 543 35,000  Level Chicago Center
09:33PM 40.0650 -87.7683 85° East 471 542 35,000  Level Indianapolis Center
09:34PM 40.0769 -87.5953 85° East 472 543 35,000  Level Indianapolis Center
09:35PM 40.0903 -87.4222 84° East 476 548 35,000  Level Indianapolis Center
09:36PM 40.1058 -87.2153 84° East 475 547 35,000  Level Indianapolis Center
09:38PM 40.1172 -87.0422 85° East 475 547 35,000  Level Indianapolis Center
09:39PM 40.1294 -86.8678 85° East 478 550 35,000  Level Indianapolis Center
09:39PM 40.1339 -86.8247 82° East 478 550 35,000  Level Chicago Center
09:40PM 40.1458 -86.6478 85° East 478 550 35,000  Level Chicago Center
09:41PM 40.1561 -86.4744 86° East 482 555 35,000  Level Chicago Center
09:42PM 40.1681 -86.3033 85° East 475 547 35,000  Level Chicago Center
09:43PM 40.1778 -86.1297 86° East 479 551 35,000  Level Chicago Center
09:44PM 40.1886 -85.9556 85° East 481 554 35,000  Level Chicago Center
09:45PM 40.1989 -85.7828 85° East 483 556 35,000  Level Chicago Center
09:46PM 40.2108 -85.5725 86° East 484 557 35,000  Level Chicago Center
09:47PM 40.2203 -85.4000 86° East 480 552 35,000  Level Chicago Center
09:48PM 40.2278 -85.2711 86° East 482 555 35,000  Level Indianapolis Center
09:49PM 40.2372 -85.0953 86° East 483 556 35,000  Level Indianapolis Center
09:50PM 40.2328 -84.9231 92° East 471 542 35,000  Level Indianapolis Center
09:51PM 40.2161 -84.7503 97° East 474 545 35,000  Level Indianapolis Center
09:52PM 40.2014 -84.5789 96° East 472 543 35,000  Level Indianapolis Center
09:53PM 40.1881 -84.4047 96° East 476 548 35,000  Level Indianapolis Center
09:54PM 40.1733 -84.2306 96° East 479 551 35,000  Level Indianapolis Center
09:55PM 40.1622 -84.0533 95° East 483 556 35,000  Level Indianapolis Center
09:56PM 40.1508 -83.8761 95° East 484 557 35,000  Level Indianapolis Center
09:57PM 40.1403 -83.6975 94° East 485 558 35,000  Level Indianapolis Center
09:58PM 40.1444 -83.5178 88° East 487 560 35,000  Level Indianapolis Center
09:59PM 40.1564 -83.3364 85° East 491 565 35,000  Level Indianapolis Center
10:00PM 40.1664 -83.1531 86° East 497 572 35,000  Level Indianapolis Center
10:01PM 40.1744 -82.9703 87° East 498 573 35,000  Level Indianapolis Center
10:02PM 40.1836 -82.7861 86° East 502 578 35,000  Level Indianapolis Center
10:03PM 40.1942 -82.6017 86° East 503 579 35,000  Level Indianapolis Center
10:04PM 40.2033 -82.4167 86° East 505 581 35,000  Level Indianapolis Center
10:05PM 40.2119 -82.2317 86° East 504 580 35,000  Level Indianapolis Center
10:06PM 40.2197 -82.0469 87° East 504 580 35,000  Level Indianapolis Center
10:07PM 40.2278 -81.8633 87° East 502 578 35,000  Level Indianapolis Center
10:08PM 40.2353 -81.6572 87° East 506 582 35,000  Level Indianapolis Center
10:09PM 40.2422 -81.4736 87° East 505 581 35,000  Level Indianapolis Center
10:10PM 40.2528 -81.2550 86° East 498 573 35,000  Level Cleveland Center
10:11PM 40.2600 -81.0728 87° East 498 573 35,000  Level Cleveland Center
10:12PM 40.2669 -80.8850 87° East 498 573 35,000  Level Cleveland Center
10:13PM 40.2733 -80.6975 87° East 503 579 35,000  Level Cleveland Center
10:14PM 40.2797 -80.5178 87° East 503 579 35,000  Level Cleveland Center
10:15PM 40.2836 -80.3328 88° East 498 573 35,000  Level Cleveland Center
10:16PM 40.2853 -80.1639 89° East 498 573 35,000  Level Cleveland Center
10:17PM 40.2928 -79.9733 87° East 505 581 35,000  Level Cleveland Center
10:18PM 40.2978 -79.7883 88° East 510 587 35,000  Level Cleveland Center
10:19PM 40.3028 -79.6003 88° East 515 593 35,000  Level Cleveland Center
10:20PM 40.3072 -79.4125 88° East 515 593 35,000  Level Cleveland Center
10:21PM 40.3092 -79.2217 89° East 515 593 35,000  Level Cleveland Center
10:22PM 40.3131 -79.0367 88° East 515 593 35,000 -120 Level Cleveland Center
10:23PM 40.3144 -78.8458 89° East 515 593 34,800 -1,380 Descending Cleveland Center
10:24PM 40.3156 -78.6581 89° East 515 593 32,300 -2,040 Descending Cleveland Center
10:25PM 40.3144 -78.4756 90° East 509 586 30,800 -1,800 Descending Cleveland Center
10:27PM 40.3131 -78.1375 90° East 470 541 27,000 -1,920 Descending New York Center
10:28PM 40.3128 -77.9714 90° East 457 526 25,100 -1,020 Descending New York Center
10:29PM 40.3119 -77.8158 90° East 443 510 25,000 -300 Descending New York Center
10:30PM 40.3083 -77.6250 91° East 455 524 24,600 -720 Descending New York Center
10:31PM 40.3097 -77.4564 89° East 461 531 23,600 -900 Descending New York Center
10:32PM 40.3069 -77.3225 92° East 461 531 22,800 -960 Descending New York Center
10:33PM 40.3011 -77.1233 92° East 461 531 21,700 -1,080 Descending New York Center
10:34PM 40.2781 -76.9661 101° East 450 518 20,700 -1,020 Descending New York Center
10:35PM 40.2422 -76.8133 107° East 444 511 19,700 -1,080 Descending New York Center
10:36PM 40.2061 -76.6633 107° East 439 505 18,600 -960 Descending New York Center
10:37PM 40.1769 -76.5331 106° East 426 490 17,800 -1,500 Descending New York Center
10:38PM 40.1442 -76.3919 107° East 414 476 15,600 -2,460 Descending New York Center
10:39PM 40.1167 -76.2394 103° East 399 459 13,100 -2,520 Descending FAA TRACON SMA TRACON (SMA)
10:40PM 40.1139 -76.1961 95° East 389 448 12,500 -1,920 Descending FAA TRACON SMA TRACON (SMA)
10:40PM 40.1111 -76.1528 95° East 388 447 11,800 -2,280 Descending FAA TRACON SMA TRACON (SMA)
10:40PM 40.1072 -76.0992 95° East 387 445 11,000 -1,860 Descending FAA TRACON SMA TRACON (SMA)
10:41PM 40.1053 -76.0581 94° East 381 438 10,600 -780 Descending FAA TRACON SMA TRACON (SMA)
10:41PM 40.1008 -76.0178 98° East 376 433 10,500 -600 Descending FAA TRACON SMA TRACON (SMA)
10:41PM 40.0975 -75.9697 95° East 346 398 10,200 -600 Descending FAA TRACON SMA TRACON (SMA)
10:42PM 40.0953 -75.9325 94° East 330 380 10,100 -960 Descending FAA TRACON SMA TRACON (SMA)
10:42PM 40.0928 -75.8983 95° East 325 374 9,600 -1,680 Descending FAA TRACON SMA TRACON (SMA)
10:42PM 40.0886 -75.8528 97° East 323 372 9,000 -1,380 Descending FAA TRACON SMA TRACON (SMA)
10:43PM 40.0867 -75.8167 94° East 321 369 8,700 -1,080 Descending FAA TRACON SMA TRACON (SMA)
10:43PM 40.0847 -75.7814 94° East 318 366 8,300 -1,080 Descending FAA TRACON SMA TRACON (SMA)
10:43PM 40.0817 -75.7372 95° East 314 361 8,000 -600 Descending FAA TRACON SMA TRACON (SMA)
10:44PM 40.0786 -75.7044 97° East 310 357 7,900 -900 Descending FAA TRACON SMA TRACON (SMA)
10:44PM 40.0719 -75.6717 105° East 315 362 7,400 -1,500 Descending FAA TRACON SMA TRACON (SMA)
10:44PM 40.0639 -75.6306 104° East 308 354 6,900 -1,380 Descending FAA TRACON SMA TRACON (SMA)
10:45PM 40.0569 -75.5969 105° East 308 354 6,500 -1,080 Descending FAA TRACON SMA TRACON (SMA)
10:45PM 40.0506 -75.5656 105° East 302 348 6,200 -1,080 Descending FAA TRACON SMA TRACON (SMA)
10:45PM 40.0422 -75.5250 105° East 297 342 5,800 -1,080 Descending FAA TRACON SMA TRACON (SMA)
10:46PM 40.0356 -75.4936 105° East 293 337 5,500 -1,080 Descending FAA TRACON SMA TRACON (SMA)
10:46PM 40.0294 -75.4631 105° East 287 330 5,100 -1,380 Descending FAA TRACON SMA TRACON (SMA)
10:46PM 40.0214 -75.4250 105° East 284 327 4,600 -1,080 Descending FAA TRACON SMA TRACON (SMA)
10:47PM 40.0161 -75.3944 103° East 282 325 4,400 -960 Descending FAA TRACON SMA TRACON (SMA)
10:47PM 40.0103 -75.3653 105° East 276 318 4,000 -780 Descending FAA TRACON SMA TRACON (SMA)
10:47PM 40.0039 -75.3286 103° East 269 310 3,900 -780 Descending FAA TRACON SMA TRACON (SMA)
10:48PM 39.9983 -75.2994 104° East 268 308 3,500 -1,080 Descending FAA TRACON SMA TRACON (SMA)
10:48PM 39.9931 -75.2717 104° East 266 306 3,200 -1,080 Descending FAA TRACON SMA TRACON (SMA)
10:48PM 39.9878 -75.2422 103° East 262 302 2,800 -1,080 Descending FAA TRACON SMA TRACON (SMA)
10:49PM 39.9819 -75.2072 102° East 258 297 2,500 -480 Descending FAA TRACON SMA TRACON (SMA)
10:49PM 39.9769 -75.1811 104° East 252 290 2,500  Level FAA TRACON SMA TRACON (SMA)
10:49PM 39.9753 -75.1483 94° East 234 269 2,500  Level FAA TRACON SMA TRACON (SMA)
10:50PM 39.9764 -75.1228 87° East 227 261 2,500  Level FAA TRACON SMA TRACON (SMA)
10:50PM 39.9681 -75.1014 117° Southeast 214 246 2,500 -300 Level FAA TRACON SMA TRACON (SMA)
10:50PM 39.9519 -75.0933 159° South 210 242 2,300 -600 Descending FAA TRACON SMA TRACON (SMA)
10:51PM 39.9319 -75.0969 188° South 195 224 2,100 -300 Descending FAA TRACON SMA TRACON (SMA)
10:51PM 39.9178 -75.1044 202° Southwest 181 208 2,100 -480 Level FAA TRACON SMA TRACON (SMA)
10:51PM 39.9081 -75.1158 222° Southwest 173 199 1,800 -1,080 Descending FAA TRACON SMA TRACON (SMA)
10:52PM 39.8981 -75.1342 235° Southwest 154 177 1,400 -900 Descending FAA TRACON SMA TRACON (SMA)
10:52PM 39.8922 -75.1492 243° Southwest 149 171 1,200 -780 Descending FAA TRACON SMA TRACON (SMA)
10:52PM 39.8886 -75.1633 252° West 147 169 900 -780 Descending FAA TRACON SMA TRACON (SMA)
10:53PM 39.8831 -75.1844 251° West 150 173 700 -780 Descending FAA TRACON SMA TRACON (SMA)
10:53PM 39.8797 -75.2006 255° West 154 177 400 -900 Descending FAA TRACON SMA TRACON (SMA)
10:53PM 39.8764 -75.2167 255° West 150 173 100 -480 Descending FAA TRACON SMA TRACON (SMA)
10:54PM 39.8764 -75.2167 113° Southeast 150 173 100  Level FAA TRACON SMA TRACON (SMA)
10:54PM 39.8764 -75.2167 113° Southeast 150 173 100  Level FAA TRACON SMA TRACON (SMA)